sensor_id;sensor_type;location;lat;lon;timestamp;temperature;humidity
73322;DHT22;61549;37.044;22.128;2023-02-27T00:00:13;18.70;64.20
73322;DHT22;61549;37.044;22.128;2023-02-27T00:02:45;18.40;65.00
73322;DHT22;61549;37.044;22.128;2023-02-27T00:05:12;18.40;65.40
73322;DHT22;61549;37.044;22.128;2023-02-27T00:07:38;18.30;66.20
73322;DHT22;61549;37.044;22.128;2023-02-27T00:10:05;18.50;65.70
73322;DHT22;61549;37.044;22.128;2023-02-27T00:12:32;18.40;65.80
73322;DHT22;61549;37.044;22.128;2023-02-27T00:15:09;18.60;65.20
73322;DHT22;61549;37.044;22.128;2023-02-27T00:17:35;18.60;64.60
73322;DHT22;61549;37.044;22.128;2023-02-27T00:20:02;18.70;63.30
73322;DHT22;61549;37.044;22.128;2023-02-27T00:22:28;18.90;62.80
73322;DHT22;61549;37.044;22.128;2023-02-27T00:24:54;19.10;62.20
73322;DHT22;61549;37.044;22.128;2023-02-27T00:27:20;19.30;60.90
73322;DHT22;61549;37.044;22.128;2023-02-27T00:29:46;19.50;60.00
73322;DHT22;61549;37.044;22.128;2023-02-27T00:32:13;19.70;59.20
73322;DHT22;61549;37.044;22.128;2023-02-27T00:34:38;19.70;58.80
73322;DHT22;61549;37.044;22.128;2023-02-27T00:37:04;19.80;58.40
73322;DHT22;61549;37.044;22.128;2023-02-27T00:39:30;19.90;58.20
73322;DHT22;61549;37.044;22.128;2023-02-27T00:41:56;19.90;58.30
73322;DHT22;61549;37.044;22.128;2023-02-27T00:44:22;19.80;58.90
73322;DHT22;61549;37.044;22.128;2023-02-27T00:46:47;19.80;59.60
73322;DHT22;61549;37.044;22.128;2023-02-27T00:49:13;19.60;61.40
73322;DHT22;61549;37.044;22.128;2023-02-27T00:51:39;19.50;62.40
73322;DHT22;61549;37.044;22.128;2023-02-27T00:54:05;19.50;62.70
73322;DHT22;61549;37.044;22.128;2023-02-27T00:56:31;19.60;62.50
73322;DHT22;61549;37.044;22.128;2023-02-27T00:58:57;19.20;63.10
73322;DHT22;61549;37.044;22.128;2023-02-27T01:01:22;19.10;62.80
73322;DHT22;61549;37.044;22.128;2023-02-27T01:03:48;19.20;62.20
73322;DHT22;61549;37.044;22.128;2023-02-27T01:06:14;19.10;62.40
73322;DHT22;61549;37.044;22.128;2023-02-27T01:08:40;19.00;62.60
73322;DHT22;61549;37.044;22.128;2023-02-27T01:11:07;19.00;63.10
73322;DHT22;61549;37.044;22.128;2023-02-27T01:13:33;19.20;63.40
73322;DHT22;61549;37.044;22.128;2023-02-27T01:15:59;19.00;63.40
73322;DHT22;61549;37.044;22.128;2023-02-27T01:18:25;19.00;63.60
73322;DHT22;61549;37.044;22.128;2023-02-27T01:21:03;19.00;61.90
73322;DHT22;61549;37.044;22.128;2023-02-27T01:23:29;18.90;61.50
73322;DHT22;61549;37.044;22.128;2023-02-27T01:25:55;19.00;60.60
73322;DHT22;61549;37.044;22.128;2023-02-27T01:28:21;19.00;60.70
73322;DHT22;61549;37.044;22.128;2023-02-27T01:30:47;19.30;59.60
73322;DHT22;61549;37.044;22.128;2023-02-27T01:33:13;19.50;59.10
73322;DHT22;61549;37.044;22.128;2023-02-27T01:35:39;19.70;58.60
73322;DHT22;61549;37.044;22.128;2023-02-27T01:38:05;19.80;58.10
73322;DHT22;61549;37.044;22.128;2023-02-27T01:40:39;19.80;57.80
73322;DHT22;61549;37.044;22.128;2023-02-27T01:43:20;19.80;58.00
73322;DHT22;61549;37.044;22.128;2023-02-27T01:45:51;19.80;57.80
73322;DHT22;61549;37.044;22.128;2023-02-27T01:50:51;19.80;57.60
73322;DHT22;61549;37.044;22.128;2023-02-27T01:53:18;19.80;57.30
73322;DHT22;61549;37.044;22.128;2023-02-27T01:55:46;19.80;57.20
73322;DHT22;61549;37.044;22.128;2023-02-27T01:58:14;19.80;57.10
73322;DHT22;61549;37.044;22.128;2023-02-27T02:00:42;19.70;57.10
73322;DHT22;61549;37.044;22.128;2023-02-27T02:05:39;19.70;57.00
73322;DHT22;61549;37.044;22.128;2023-02-27T02:08:06;19.70;56.90
73322;DHT22;61549;37.044;22.128;2023-02-27T02:10:32;19.60;56.70
73322;DHT22;61549;37.044;22.128;2023-02-27T02:13:00;19.50;56.20
73322;DHT22;61549;37.044;22.128;2023-02-27T02:15:32;19.50;55.80
73322;DHT22;61549;37.044;22.128;2023-02-27T02:18:36;19.50;56.10
73322;DHT22;61549;37.044;22.128;2023-02-27T02:21:19;19.50;56.40
73322;DHT22;61549;37.044;22.128;2023-02-27T02:35:13;19.40;57.70
73322;DHT22;61549;37.044;22.128;2023-02-27T02:46:46;19.50;59.20
73322;DHT22;61549;37.044;22.128;2023-02-27T02:54:47;19.40;59.60
73322;DHT22;61549;37.044;22.128;2023-02-27T03:00:16;19.40;59.50
73322;DHT22;61549;37.044;22.128;2023-02-27T03:02:46;19.40;59.30
73322;DHT22;61549;37.044;22.128;2023-02-27T03:06:01;19.40;59.10
73322;DHT22;61549;37.044;22.128;2023-02-27T03:08:28;19.50;59.00
73322;DHT22;61549;37.044;22.128;2023-02-27T03:11:02;19.50;58.80
73322;DHT22;61549;37.044;22.128;2023-02-27T03:13:43;19.60;58.60
73322;DHT22;61549;37.044;22.128;2023-02-27T03:18:51;19.50;58.80
73322;DHT22;61549;37.044;22.128;2023-02-27T03:21:38;19.50;59.00
73322;DHT22;61549;37.044;22.128;2023-02-27T03:24:09;19.40;59.10
73322;DHT22;61549;37.044;22.128;2023-02-27T03:26:41;19.20;59.60
73322;DHT22;61549;37.044;22.128;2023-02-27T03:29:12;19.20;59.90
73322;DHT22;61549;37.044;22.128;2023-02-27T03:34:18;19.20;60.00
73322;DHT22;61549;37.044;22.128;2023-02-27T03:42:09;19.00;60.50
73322;DHT22;61549;37.044;22.128;2023-02-27T03:44:54;19.00;60.60
73322;DHT22;61549;37.044;22.128;2023-02-27T03:47:23;19.00;60.60
73322;DHT22;61549;37.044;22.128;2023-02-27T03:49:49;18.80;60.80
73322;DHT22;61549;37.044;22.128;2023-02-27T03:52:22;18.70;61.30
73322;DHT22;61549;37.044;22.128;2023-02-27T03:55:18;18.80;61.30
73322;DHT22;61549;37.044;22.128;2023-02-27T03:58:08;18.80;60.70
73322;DHT22;61549;37.044;22.128;2023-02-27T04:00:34;18.90;60.70
73322;DHT22;61549;37.044;22.128;2023-02-27T04:03:09;18.90;60.50
73322;DHT22;61549;37.044;22.128;2023-02-27T04:05:35;18.80;60.60
73322;DHT22;61549;37.044;22.128;2023-02-27T04:13:51;18.80;60.70
73322;DHT22;61549;37.044;22.128;2023-02-27T04:19:45;18.70;59.30
73322;DHT22;61549;37.044;22.128;2023-02-27T04:24:54;18.70;59.10
73322;DHT22;61549;37.044;22.128;2023-02-27T04:33:08;18.70;59.10
73322;DHT22;61549;37.044;22.128;2023-02-27T04:35:40;18.70;59.00
73322;DHT22;61549;37.044;22.128;2023-02-27T04:38:15;18.80;58.50
73322;DHT22;61549;37.044;22.128;2023-02-27T04:40:46;18.80;57.90
73322;DHT22;61549;37.044;22.128;2023-02-27T04:43:14;18.80;56.60
73322;DHT22;61549;37.044;22.128;2023-02-27T04:45:42;18.70;56.10
73322;DHT22;61549;37.044;22.128;2023-02-27T04:48:33;18.70;56.00
73322;DHT22;61549;37.044;22.128;2023-02-27T04:51:05;18.70;55.80
73322;DHT22;61549;37.044;22.128;2023-02-27T04:53:41;18.70;55.10
73322;DHT22;61549;37.044;22.128;2023-02-27T04:56:22;18.70;54.20
73322;DHT22;61549;37.044;22.128;2023-02-27T04:58:56;18.70;54.50
73322;DHT22;61549;37.044;22.128;2023-02-27T05:01:45;18.70;54.40
73322;DHT22;61549;37.044;22.128;2023-02-27T05:04:15;18.80;54.20
73322;DHT22;61549;37.044;22.128;2023-02-27T05:06:44;18.70;54.40
73322;DHT22;61549;37.044;22.128;2023-02-27T05:09:19;18.80;54.20
73322;DHT22;61549;37.044;22.128;2023-02-27T05:11:55;18.80;54.30
73322;DHT22;61549;37.044;22.128;2023-02-27T05:14:30;18.70;54.40
73322;DHT22;61549;37.044;22.128;2023-02-27T05:17:10;18.70;54.50
73322;DHT22;61549;37.044;22.128;2023-02-27T05:19:39;18.70;55.10
73322;DHT22;61549;37.044;22.128;2023-02-27T05:22:29;18.70;54.70
73322;DHT22;61549;37.044;22.128;2023-02-27T05:27:52;18.80;55.20
73322;DHT22;61549;37.044;22.128;2023-02-27T05:30:26;18.70;54.90
73322;DHT22;61549;37.044;22.128;2023-02-27T05:32:57;18.70;55.50
73322;DHT22;61549;37.044;22.128;2023-02-27T05:35:43;18.70;55.20
73322;DHT22;61549;37.044;22.128;2023-02-27T05:39:00;18.80;54.90
73322;DHT22;61549;37.044;22.128;2023-02-27T05:41:08;18.80;54.90
73322;DHT22;61549;37.044;22.128;2023-02-27T05:43:37;18.80;54.80
73322;DHT22;61549;37.044;22.128;2023-02-27T05:46:10;18.80;54.90
73322;DHT22;61549;37.044;22.128;2023-02-27T05:48:45;18.90;55.20
73322;DHT22;61549;37.044;22.128;2023-02-27T05:51:13;19.00;55.00
73322;DHT22;61549;37.044;22.128;2023-02-27T05:53:47;19.00;55.10
73322;DHT22;61549;37.044;22.128;2023-02-27T05:56:17;19.10;55.20
73322;DHT22;61549;37.044;22.128;2023-02-27T05:58:50;19.10;55.50
73322;DHT22;61549;37.044;22.128;2023-02-27T06:01:18;19.20;55.20
73322;DHT22;61549;37.044;22.128;2023-02-27T06:03:44;19.20;54.70
73322;DHT22;61549;37.044;22.128;2023-02-27T06:06:16;19.30;53.30
73322;DHT22;61549;37.044;22.128;2023-02-27T06:08:44;19.50;53.50
73322;DHT22;61549;37.044;22.128;2023-02-27T06:11:10;19.40;53.40
73322;DHT22;61549;37.044;22.128;2023-02-27T06:13:37;19.50;53.10
73322;DHT22;61549;37.044;22.128;2023-02-27T06:16:04;19.60;53.00
73322;DHT22;61549;37.044;22.128;2023-02-27T06:18:30;19.70;53.10
73322;DHT22;61549;37.044;22.128;2023-02-27T06:20:56;19.90;53.10
73322;DHT22;61549;37.044;22.128;2023-02-27T06:23:22;20.00;52.00
73322;DHT22;61549;37.044;22.128;2023-02-27T06:25:48;20.10;51.80
73322;DHT22;61549;37.044;22.128;2023-02-27T06:28:14;20.20;51.20
73322;DHT22;61549;37.044;22.128;2023-02-27T06:30:40;20.30;51.20
73322;DHT22;61549;37.044;22.128;2023-02-27T06:33:06;20.40;50.70
73322;DHT22;61549;37.044;22.128;2023-02-27T06:35:31;20.50;50.60
73322;DHT22;61549;37.044;22.128;2023-02-27T06:37:58;20.60;50.70
73322;DHT22;61549;37.044;22.128;2023-02-27T06:40:24;20.70;50.90
73322;DHT22;61549;37.044;22.128;2023-02-27T06:42:50;20.80;50.90
73322;DHT22;61549;37.044;22.128;2023-02-27T06:45:16;20.90;51.00
73322;DHT22;61549;37.044;22.128;2023-02-27T06:47:42;21.10;51.60
73322;DHT22;61549;37.044;22.128;2023-02-27T06:50:10;21.20;51.20
73322;DHT22;61549;37.044;22.128;2023-02-27T06:52:37;21.40;51.20
73322;DHT22;61549;37.044;22.128;2023-02-27T06:55:05;21.50;51.30
73322;DHT22;61549;37.044;22.128;2023-02-27T06:57:31;21.70;51.40
73322;DHT22;61549;37.044;22.128;2023-02-27T06:59:57;21.80;51.40
73322;DHT22;61549;37.044;22.128;2023-02-27T07:02:23;21.90;51.40
73322;DHT22;61549;37.044;22.128;2023-02-27T07:04:50;22.00;51.60
73322;DHT22;61549;37.044;22.128;2023-02-27T07:07:17;22.20;51.50
73322;DHT22;61549;37.044;22.128;2023-02-27T07:09:43;22.20;51.20
73322;DHT22;61549;37.044;22.128;2023-02-27T07:12:08;22.10;51.60
73322;DHT22;61549;37.044;22.128;2023-02-27T07:14:34;22.20;51.90
73322;DHT22;61549;37.044;22.128;2023-02-27T07:17:00;22.30;51.50
73322;DHT22;61549;37.044;22.128;2023-02-27T07:19:30;22.00;51.40
73322;DHT22;61549;37.044;22.128;2023-02-27T07:21:56;21.80;52.00
73322;DHT22;61549;37.044;22.128;2023-02-27T07:24:22;21.90;52.50
73322;DHT22;61549;37.044;22.128;2023-02-27T07:27:05;22.00;52.10
73322;DHT22;61549;37.044;22.128;2023-02-27T07:29:31;22.20;51.90
73322;DHT22;61549;37.044;22.128;2023-02-27T07:31:57;22.20;51.80
73322;DHT22;61549;37.044;22.128;2023-02-27T07:34:22;22.20;51.10
73322;DHT22;61549;37.044;22.128;2023-02-27T07:36:48;22.30;50.40
73322;DHT22;61549;37.044;22.128;2023-02-27T07:39:17;22.50;50.10
73322;DHT22;61549;37.044;22.128;2023-02-27T07:41:43;22.60;50.20
73322;DHT22;61549;37.044;22.128;2023-02-27T07:44:10;22.70;49.70
73322;DHT22;61549;37.044;22.128;2023-02-27T07:46:38;22.70;49.30
73322;DHT22;61549;37.044;22.128;2023-02-27T07:49:04;22.90;49.30
73322;DHT22;61549;37.044;22.128;2023-02-27T07:51:31;23.10;48.90
73322;DHT22;61549;37.044;22.128;2023-02-27T07:54:04;23.00;48.40
73322;DHT22;61549;37.044;22.128;2023-02-27T07:56:30;23.10;48.10
73322;DHT22;61549;37.044;22.128;2023-02-27T07:58:56;22.90;48.10
73322;DHT22;61549;37.044;22.128;2023-02-27T08:01:22;23.10;48.50
73322;DHT22;61549;37.044;22.128;2023-02-27T08:03:47;23.20;48.60
73322;DHT22;61549;37.044;22.128;2023-02-27T08:06:13;22.90;50.20
73322;DHT22;61549;37.044;22.128;2023-02-27T08:08:39;22.70;51.30
73322;DHT22;61549;37.044;22.128;2023-02-27T08:11:05;22.80;52.30
73322;DHT22;61549;37.044;22.128;2023-02-27T08:13:31;22.50;53.30
73322;DHT22;61549;37.044;22.128;2023-02-27T08:15:57;22.30;54.20
73322;DHT22;61549;37.044;22.128;2023-02-27T08:18:24;22.10;54.20
73322;DHT22;61549;37.044;22.128;2023-02-27T08:20:54;22.00;54.60
73322;DHT22;61549;37.044;22.128;2023-02-27T08:23:21;22.20;54.00
73322;DHT22;61549;37.044;22.128;2023-02-27T08:25:47;22.00;52.50
73322;DHT22;61549;37.044;22.128;2023-02-27T08:28:13;22.20;51.90
73322;DHT22;61549;37.044;22.128;2023-02-27T08:30:39;22.20;51.30
73322;DHT22;61549;37.044;22.128;2023-02-27T08:33:05;22.10;51.30
73322;DHT22;61549;37.044;22.128;2023-02-27T08:35:30;22.10;50.70
73322;DHT22;61549;37.044;22.128;2023-02-27T08:37:56;22.20;51.20
73322;DHT22;61549;37.044;22.128;2023-02-27T08:40:22;22.30;52.60
73322;DHT22;61549;37.044;22.128;2023-02-27T08:42:48;22.30;51.60
73322;DHT22;61549;37.044;22.128;2023-02-27T08:45:16;22.30;51.50
73322;DHT22;61549;37.044;22.128;2023-02-27T08:47:43;21.80;52.20
73322;DHT22;61549;37.044;22.128;2023-02-27T08:50:10;21.90;52.80
73322;DHT22;61549;37.044;22.128;2023-02-27T08:52:39;21.90;54.00
73322;DHT22;61549;37.044;22.128;2023-02-27T08:55:24;21.80;54.60
73322;DHT22;61549;37.044;22.128;2023-02-27T08:57:50;21.90;56.10
73322;DHT22;61549;37.044;22.128;2023-02-27T09:00:16;21.90;56.10
73322;DHT22;61549;37.044;22.128;2023-02-27T09:02:42;21.90;55.70
73322;DHT22;61549;37.044;22.128;2023-02-27T09:05:18;21.80;55.60
73322;DHT22;61549;37.044;22.128;2023-02-27T09:07:44;21.60;56.00
73322;DHT22;61549;37.044;22.128;2023-02-27T09:10:11;21.50;57.00
73322;DHT22;61549;37.044;22.128;2023-02-27T09:12:38;21.40;57.00
73322;DHT22;61549;37.044;22.128;2023-02-27T09:15:05;21.40;56.60
73322;DHT22;61549;37.044;22.128;2023-02-27T09:17:31;21.30;57.10
73322;DHT22;61549;37.044;22.128;2023-02-27T09:19:57;21.20;57.00
73322;DHT22;61549;37.044;22.128;2023-02-27T09:22:23;21.30;56.90
73322;DHT22;61549;37.044;22.128;2023-02-27T09:24:49;21.30;56.70
73322;DHT22;61549;37.044;22.128;2023-02-27T09:27:15;21.40;56.90
73322;DHT22;61549;37.044;22.128;2023-02-27T09:29:41;21.40;56.80
73322;DHT22;61549;37.044;22.128;2023-02-27T09:32:07;21.50;56.70
73322;DHT22;61549;37.044;22.128;2023-02-27T09:34:43;21.40;56.10
73322;DHT22;61549;37.044;22.128;2023-02-27T09:37:42;21.30;56.50
73322;DHT22;61549;37.044;22.128;2023-02-27T09:40:54;21.20;56.50
73322;DHT22;61549;37.044;22.128;2023-02-27T09:43:44;21.30;56.60
73322;DHT22;61549;37.044;22.128;2023-02-27T09:46:27;21.20;57.30
73322;DHT22;61549;37.044;22.128;2023-02-27T09:49:05;21.10;57.70
73322;DHT22;61549;37.044;22.128;2023-02-27T09:55:33;21.30;59.20
73322;DHT22;61549;37.044;22.128;2023-02-27T10:04:35;21.70;58.80
73322;DHT22;61549;37.044;22.128;2023-02-27T10:07:31;21.60;58.50
73322;DHT22;61549;37.044;22.128;2023-02-27T10:19:26;21.60;59.30
73322;DHT22;61549;37.044;22.128;2023-02-27T10:21:59;21.60;58.10
73322;DHT22;61549;37.044;22.128;2023-02-27T10:24:39;21.60;58.50
73322;DHT22;61549;37.044;22.128;2023-02-27T10:27:16;21.70;58.10
73322;DHT22;61549;37.044;22.128;2023-02-27T10:29:45;21.80;57.90
73322;DHT22;61549;37.044;22.128;2023-02-27T10:32:24;21.70;57.60
73322;DHT22;61549;37.044;22.128;2023-02-27T10:35:05;21.60;58.10
73322;DHT22;61549;37.044;22.128;2023-02-27T10:37:34;21.60;58.80
73322;DHT22;61549;37.044;22.128;2023-02-27T10:40:17;21.60;59.20
73322;DHT22;61549;37.044;22.128;2023-02-27T10:42:48;21.70;58.60
73322;DHT22;61549;37.044;22.128;2023-02-27T10:45:25;21.70;58.90
73322;DHT22;61549;37.044;22.128;2023-02-27T10:47:53;21.60;58.90
73322;DHT22;61549;37.044;22.128;2023-02-27T10:50:49;21.60;59.70
73322;DHT22;61549;37.044;22.128;2023-02-27T10:53:21;21.70;58.80
73322;DHT22;61549;37.044;22.128;2023-02-27T10:56:11;21.80;58.60
73322;DHT22;61549;37.044;22.128;2023-02-27T10:59:09;21.50;59.30
73322;DHT22;61549;37.044;22.128;2023-02-27T11:01:52;21.50;58.90
73322;DHT22;61549;37.044;22.128;2023-02-27T11:04:36;21.50;59.30
73322;DHT22;61549;37.044;22.128;2023-02-27T11:07:11;21.60;59.00
73322;DHT22;61549;37.044;22.128;2023-02-27T11:09:38;21.70;58.10
73322;DHT22;61549;37.044;22.128;2023-02-27T11:12:21;21.70;58.50
73322;DHT22;61549;37.044;22.128;2023-02-27T11:14:54;21.60;58.60
73322;DHT22;61549;37.044;22.128;2023-02-27T11:17:28;21.60;59.00
73322;DHT22;61549;37.044;22.128;2023-02-27T11:19:55;21.80;58.70
73322;DHT22;61549;37.044;22.128;2023-02-27T11:22:23;22.00;58.00
73322;DHT22;61549;37.044;22.128;2023-02-27T11:24:51;22.00;57.40
73322;DHT22;61549;37.044;22.128;2023-02-27T11:27:23;22.10;57.90
73322;DHT22;61549;37.044;22.128;2023-02-27T11:30:00;22.00;57.40
73322;DHT22;61549;37.044;22.128;2023-02-27T11:32:47;22.00;57.60
73322;DHT22;61549;37.044;22.128;2023-02-27T11:35:25;22.10;57.30
73322;DHT22;61549;37.044;22.128;2023-02-27T11:37:55;22.00;57.40
73322;DHT22;61549;37.044;22.128;2023-02-27T11:40:29;21.80;58.10
73322;DHT22;61549;37.044;22.128;2023-02-27T11:43:20;21.90;58.00
73322;DHT22;61549;37.044;22.128;2023-02-27T11:45:54;21.80;59.00
73322;DHT22;61549;37.044;22.128;2023-02-27T11:49:12;21.60;59.10
73322;DHT22;61549;37.044;22.128;2023-02-27T12:01:43;21.70;59.10
73322;DHT22;61549;37.044;22.128;2023-02-27T12:07:15;21.50;58.70
73322;DHT22;61549;37.044;22.128;2023-02-27T12:09:50;21.50;58.90
73322;DHT22;61549;37.044;22.128;2023-02-27T12:18:20;21.50;58.50
73322;DHT22;61549;37.044;22.128;2023-02-27T12:21:03;21.60;58.20
73322;DHT22;61549;37.044;22.128;2023-02-27T12:28:34;21.10;59.40
73322;DHT22;61549;37.044;22.128;2023-02-27T12:31:29;21.20;58.90
73322;DHT22;61549;37.044;22.128;2023-02-27T12:34:23;21.10;59.50
73322;DHT22;61549;37.044;22.128;2023-02-27T12:37:03;21.20;59.40
73322;DHT22;61549;37.044;22.128;2023-02-27T12:39:29;21.10;59.90
73322;DHT22;61549;37.044;22.128;2023-02-27T12:50:22;21.10;59.50
73322;DHT22;61549;37.044;22.128;2023-02-27T12:55:47;21.10;58.70
73322;DHT22;61549;37.044;22.128;2023-02-27T12:58:39;21.10;58.50
73322;DHT22;61549;37.044;22.128;2023-02-27T13:01:34;21.00;57.80
73322;DHT22;61549;37.044;22.128;2023-02-27T13:07:06;21.00;59.20
73322;DHT22;61549;37.044;22.128;2023-02-27T13:12:47;21.10;58.70
73322;DHT22;61549;37.044;22.128;2023-02-27T13:15:39;21.00;58.00
73322;DHT22;61549;37.044;22.128;2023-02-27T13:21:06;21.00;58.90
73322;DHT22;61549;37.044;22.128;2023-02-27T13:26:25;21.10;59.50
73322;DHT22;61549;37.044;22.128;2023-02-27T13:28:53;21.20;60.00
73322;DHT22;61549;37.044;22.128;2023-02-27T13:34:45;21.20;59.10
73322;DHT22;61549;37.044;22.128;2023-02-27T13:37:11;21.20;59.40
73322;DHT22;61549;37.044;22.128;2023-02-27T13:42:48;21.30;59.30
73322;DHT22;61549;37.044;22.128;2023-02-27T13:50:59;21.30;59.30
73322;DHT22;61549;37.044;22.128;2023-02-27T13:53:27;21.30;59.60
73322;DHT22;61549;37.044;22.128;2023-02-27T13:56:20;21.40;59.70
73322;DHT22;61549;37.044;22.128;2023-02-27T13:58:47;21.40;59.00
73322;DHT22;61549;37.044;22.128;2023-02-27T14:01:17;21.40;59.70
73322;DHT22;61549;37.044;22.128;2023-02-27T14:03:54;21.30;59.00
73322;DHT22;61549;37.044;22.128;2023-02-27T14:06:24;21.20;59.50
73322;DHT22;61549;37.044;22.128;2023-02-27T14:08:52;21.20;59.10
73322;DHT22;61549;37.044;22.128;2023-02-27T14:11:33;21.20;58.60
73322;DHT22;61549;37.044;22.128;2023-02-27T14:14:38;21.20;59.10
73322;DHT22;61549;37.044;22.128;2023-02-27T14:17:06;21.10;59.00
73322;DHT22;61549;37.044;22.128;2023-02-27T14:24:45;21.30;59.10
73322;DHT22;61549;37.044;22.128;2023-02-27T14:27:30;21.40;58.90
73322;DHT22;61549;37.044;22.128;2023-02-27T14:30:01;21.40;58.80
73322;DHT22;61549;37.044;22.128;2023-02-27T14:32:34;21.40;58.30
73322;DHT22;61549;37.044;22.128;2023-02-27T14:35:04;21.40;58.70
73322;DHT22;61549;37.044;22.128;2023-02-27T14:37:30;21.20;58.50
73322;DHT22;61549;37.044;22.128;2023-02-27T14:39:57;21.30;58.70
73322;DHT22;61549;37.044;22.128;2023-02-27T14:42:56;21.30;58.60
73322;DHT22;61549;37.044;22.128;2023-02-27T14:45:30;21.30;58.60
73322;DHT22;61549;37.044;22.128;2023-02-27T14:47:56;21.10;59.00
73322;DHT22;61549;37.044;22.128;2023-02-27T14:50:34;21.00;59.40
73322;DHT22;61549;37.044;22.128;2023-02-27T14:53:03;21.00;59.00
73322;DHT22;61549;37.044;22.128;2023-02-27T14:55:34;20.90;59.20
73322;DHT22;61549;37.044;22.128;2023-02-27T15:00:41;20.70;58.90
73322;DHT22;61549;37.044;22.128;2023-02-27T15:05:42;20.40;60.10
73322;DHT22;61549;37.044;22.128;2023-02-27T15:08:19;20.40;59.40
73322;DHT22;61549;37.044;22.128;2023-02-27T15:10:46;20.30;59.50
73322;DHT22;61549;37.044;22.128;2023-02-27T15:13:30;20.30;58.70
73322;DHT22;61549;37.044;22.128;2023-02-27T15:18:56;20.40;58.20
73322;DHT22;61549;37.044;22.128;2023-02-27T15:21:24;20.40;58.10
73322;DHT22;61549;37.044;22.128;2023-02-27T15:24:01;20.30;57.80
73322;DHT22;61549;37.044;22.128;2023-02-27T15:26:30;20.20;59.00
73322;DHT22;61549;37.044;22.128;2023-02-27T15:29:22;20.20;58.60
73322;DHT22;61549;37.044;22.128;2023-02-27T15:31:49;20.20;58.00
73322;DHT22;61549;37.044;22.128;2023-02-27T15:34:15;20.20;58.20
73322;DHT22;61549;37.044;22.128;2023-02-27T15:36:51;20.20;58.50
73322;DHT22;61549;37.044;22.128;2023-02-27T15:39:20;20.20;59.20
73322;DHT22;61549;37.044;22.128;2023-02-27T15:42:00;20.20;59.40
73322;DHT22;61549;37.044;22.128;2023-02-27T15:44:36;20.20;60.30
73322;DHT22;61549;37.044;22.128;2023-02-27T15:47:04;20.20;60.80
73322;DHT22;61549;37.044;22.128;2023-02-27T15:49:30;20.30;61.00
73322;DHT22;61549;37.044;22.128;2023-02-27T15:55:02;20.50;60.70
73322;DHT22;61549;37.044;22.128;2023-02-27T15:57:28;20.40;61.10
73322;DHT22;61549;37.044;22.128;2023-02-27T15:59:56;20.40;61.50
73322;DHT22;61549;37.044;22.128;2023-02-27T16:02:39;20.40;61.50
73322;DHT22;61549;37.044;22.128;2023-02-27T16:05:15;20.50;61.40
73322;DHT22;61549;37.044;22.128;2023-02-27T16:07:41;20.50;61.30
73322;DHT22;61549;37.044;22.128;2023-02-27T16:10:22;20.40;60.70
73322;DHT22;61549;37.044;22.128;2023-02-27T16:12:49;20.40;60.70
73322;DHT22;61549;37.044;22.128;2023-02-27T16:18:33;20.30;59.50
73322;DHT22;61549;37.044;22.128;2023-02-27T16:21:14;20.20;59.00
73322;DHT22;61549;37.044;22.128;2023-02-27T16:23:41;20.20;59.70
73322;DHT22;61549;37.044;22.128;2023-02-27T16:26:29;20.10;60.00
73322;DHT22;61549;37.044;22.128;2023-02-27T16:29:03;20.10;59.60
73322;DHT22;61549;37.044;22.128;2023-02-27T16:31:35;20.20;59.10
73322;DHT22;61549;37.044;22.128;2023-02-27T16:37:05;20.40;57.80
73322;DHT22;61549;37.044;22.128;2023-02-27T16:39:32;20.40;57.60
73322;DHT22;61549;37.044;22.128;2023-02-27T16:41:59;20.40;57.90
73322;DHT22;61549;37.044;22.128;2023-02-27T16:44:26;20.50;57.60
73322;DHT22;61549;37.044;22.128;2023-02-27T16:46:53;20.60;57.60
73322;DHT22;61549;37.044;22.128;2023-02-27T16:49:23;20.60;57.60
73322;DHT22;61549;37.044;22.128;2023-02-27T16:51:50;20.70;57.50
73322;DHT22;61549;37.044;22.128;2023-02-27T16:54:16;20.80;56.90
73322;DHT22;61549;37.044;22.128;2023-02-27T16:56:44;20.90;56.40
73322;DHT22;61549;37.044;22.128;2023-02-27T16:59:28;21.00;56.20
73322;DHT22;61549;37.044;22.128;2023-02-27T17:02:00;21.10;56.10
73322;DHT22;61549;37.044;22.128;2023-02-27T17:04:27;21.10;56.40
73322;DHT22;61549;37.044;22.128;2023-02-27T17:06:54;21.10;56.50
73322;DHT22;61549;37.044;22.128;2023-02-27T17:09:22;21.00;56.50
73322;DHT22;61549;37.044;22.128;2023-02-27T17:11:48;21.00;56.70
73322;DHT22;61549;37.044;22.128;2023-02-27T17:14:14;21.00;56.70
73322;DHT22;61549;37.044;22.128;2023-02-27T17:16:41;21.00;56.90
73322;DHT22;61549;37.044;22.128;2023-02-27T17:19:07;20.90;57.10
73322;DHT22;61549;37.044;22.128;2023-02-27T17:21:33;20.90;57.10
73322;DHT22;61549;37.044;22.128;2023-02-27T17:24:00;20.90;57.10
73322;DHT22;61549;37.044;22.128;2023-02-27T17:26:26;20.70;57.10
73322;DHT22;61549;37.044;22.128;2023-02-27T17:28:53;20.70;57.10
73322;DHT22;61549;37.044;22.128;2023-02-27T17:31:20;20.80;57.20
73322;DHT22;61549;37.044;22.128;2023-02-27T17:33:51;20.70;57.30
73322;DHT22;61549;37.044;22.128;2023-02-27T17:36:18;20.70;57.20
73322;DHT22;61549;37.044;22.128;2023-02-27T17:39:02;20.60;57.30
73322;DHT22;61549;37.044;22.128;2023-02-27T17:41:30;20.60;57.30
73322;DHT22;61549;37.044;22.128;2023-02-27T17:43:58;20.50;57.50
73322;DHT22;61549;37.044;22.128;2023-02-27T17:46:27;20.50;57.80
73322;DHT22;61549;37.044;22.128;2023-02-27T17:48:55;20.40;57.50
73322;DHT22;61549;37.044;22.128;2023-02-27T17:51:26;20.40;57.70
73322;DHT22;61549;37.044;22.128;2023-02-27T17:53:52;20.50;57.40
73322;DHT22;61549;37.044;22.128;2023-02-27T17:56:18;20.40;57.20
73322;DHT22;61549;37.044;22.128;2023-02-27T17:58:44;20.40;56.50
73322;DHT22;61549;37.044;22.128;2023-02-27T18:01:12;20.20;56.40
73322;DHT22;61549;37.044;22.128;2023-02-27T18:03:39;20.10;56.20
73322;DHT22;61549;37.044;22.128;2023-02-27T18:06:05;20.10;56.50
73322;DHT22;61549;37.044;22.128;2023-02-27T18:08:32;20.10;56.50
73322;DHT22;61549;37.044;22.128;2023-02-27T18:10:58;20.20;56.30
73322;DHT22;61549;37.044;22.128;2023-02-27T18:13:25;20.20;56.60
73322;DHT22;61549;37.044;22.128;2023-02-27T18:15:52;20.30;56.50
73322;DHT22;61549;37.044;22.128;2023-02-27T18:18:19;20.50;56.40
73322;DHT22;61549;37.044;22.128;2023-02-27T18:20:46;20.60;56.10
73322;DHT22;61549;37.044;22.128;2023-02-27T18:23:13;20.70;56.30
73322;DHT22;61549;37.044;22.128;2023-02-27T18:25:39;20.80;56.40
73322;DHT22;61549;37.044;22.128;2023-02-27T18:28:06;20.80;56.60